sensor_id;sensor_type;location;lat;lon;timestamp;pressure;altitude;pressure_sealevel;temperature;humidity
38530;BME280;24301;54.332;48.386;2022-10-31T00:00:59;96581.56;;;2.30;75.34
38530;BME280;24301;54.332;48.386;2022-10-31T00:03:25;96589.41;;;2.27;75.90
38530;BME280;24301;54.332;48.386;2022-10-31T00:05:52;96580.91;;;2.19;75.70
38530;BME280;24301;54.332;48.386;2022-10-31T00:08:18;96598.25;;;2.17;74.90
38530;BME280;24301;54.332;48.386;2022-10-31T00:10:45;96596.63;;;2.10;75.33
38530;BME280;24301;54.332;48.386;2022-10-31T00:13:12;96597.56;;;2.07;75.65
38530;BME280;24301;54.332;48.386;2022-10-31T00:15:39;96613.13;;;2.06;75.68
38530;BME280;24301;54.332;48.386;2022-10-31T00:18:06;96608.88;;;2.01;75.73
38530;BME280;24301;54.332;48.386;2022-10-31T00:20:33;96608.06;;;1.99;76.28
38530;BME280;24301;54.332;48.386;2022-10-31T00:23:00;96608.00;;;2.03;76.67
38530;BME280;24301;54.332;48.386;2022-10-31T00:25:27;96606.28;;;2.01;75.80
38530;BME280;24301;54.332;48.386;2022-10-31T00:27:53;96608.00;;;2.03;76.36
38530;BME280;24301;54.332;48.386;2022-10-31T00:30:19;96613.19;;;2.01;76.52
38530;BME280;24301;54.332;48.386;2022-10-31T00:32:46;96609.88;;;1.93;75.66
38530;BME280;24301;54.332;48.386;2022-10-31T00:35:12;96627.28;;;1.86;76.68
38530;BME280;24301;54.332;48.386;2022-10-31T00:37:38;96617.03;;;1.80;77.23
38530;BME280;24301;54.332;48.386;2022-10-31T00:40:05;96628.16;;;1.85;76.76
38530;BME280;24301;54.332;48.386;2022-10-31T00:42:31;96631.53;;;1.90;76.91
38530;BME280;24301;54.332;48.386;2022-10-31T00:44:57;96623.59;;;1.99;77.26
38530;BME280;24301;54.332;48.386;2022-10-31T00:47:23;96614.06;;;2.03;77.12
38530;BME280;24301;54.332;48.386;2022-10-31T00:49:49;96621.72;;;2.09;76.85
38530;BME280;24301;54.332;48.386;2022-10-31T00:52:15;96637.19;;;2.12;76.75
38530;BME280;24301;54.332;48.386;2022-10-31T00:54:41;96637.84;;;2.24;77.18
38530;BME280;24301;54.332;48.386;2022-10-31T00:57:07;96638.59;;;2.30;76.76
38530;BME280;24301;54.332;48.386;2022-10-31T00:59:33;96634.25;;;2.33;76.26
38530;BME280;24301;54.332;48.386;2022-10-31T01:01:59;96636.88;;;2.29;76.59
38530;BME280;24301;54.332;48.386;2022-10-31T01:04:25;96639.69;;;2.19;76.75
38530;BME280;24301;54.332;48.386;2022-10-31T01:06:51;96636.50;;;2.03;76.37
38530;BME280;24301;54.332;48.386;2022-10-31T01:09:17;96635.03;;;1.88;77.58
38530;BME280;24301;54.332;48.386;2022-10-31T01:11:43;96625.78;;;1.72;77.63
38530;BME280;24301;54.332;48.386;2022-10-31T01:14:09;96637.16;;;1.62;77.86
38530;BME280;24301;54.332;48.386;2022-10-31T01:16:35;96644.94;;;1.62;78.88
38530;BME280;24301;54.332;48.386;2022-10-31T01:19:01;96632.06;;;1.56;79.01
38530;BME280;24301;54.332;48.386;2022-10-31T01:21:28;96640.59;;;1.64;79.31
38530;BME280;24301;54.332;48.386;2022-10-31T01:23:57;96656.97;;;1.66;79.11
38530;BME280;24301;54.332;48.386;2022-10-31T01:26:28;96650.00;;;1.70;79.83
38530;BME280;24301;54.332;48.386;2022-10-31T01:28:58;96660.34;;;1.70;79.22
38530;BME280;24301;54.332;48.386;2022-10-31T01:31:30;96650.00;;;1.70;79.27
38530;BME280;24301;54.332;48.386;2022-10-31T01:33:58;96648.28;;;1.69;80.00
38530;BME280;24301;54.332;48.386;2022-10-31T01:36:30;96649.94;;;1.73;79.91
38530;BME280;24301;54.332;48.386;2022-10-31T01:38:59;96648.34;;;1.66;79.32
38530;BME280;24301;54.332;48.386;2022-10-31T01:41:28;96657.91;;;1.61;79.37
38530;BME280;24301;54.332;48.386;2022-10-31T01:48:52;96666.00;;;1.40;79.51
38530;BME280;24301;54.332;48.386;2022-10-31T01:51:20;96654.09;;;1.27;79.32
38530;BME280;24301;54.332;48.386;2022-10-31T01:53:49;96660.13;;;1.27;79.39
38530;BME280;24301;54.332;48.386;2022-10-31T01:56:17;96656.66;;;1.27;80.13
38530;BME280;24301;54.332;48.386;2022-10-31T01:58:45;96655.84;;;1.26;80.01
38530;BME280;24301;54.332;48.386;2022-10-31T02:01:16;96641.22;;;1.21;79.55
38530;BME280;24301;54.332;48.386;2022-10-31T02:03:44;96648.13;;;1.22;79.63
38530;BME280;24301;54.332;48.386;2022-10-31T02:07:13;96650.81;;;1.16;79.19
38530;BME280;24301;54.332;48.386;2022-10-31T02:09:14;96658.63;;;1.11;79.87
38530;BME280;24301;54.332;48.386;2022-10-31T02:11:41;96651.69;;;1.11;79.97
38530;BME280;24301;54.332;48.386;2022-10-31T02:14:11;96662.88;;;1.13;80.28
38530;BME280;24301;54.332;48.386;2022-10-31T02:16:37;96649.09;;;1.14;79.92
38530;BME280;24301;54.332;48.386;2022-10-31T02:19:08;96653.41;;;1.16;80.10
38530;BME280;24301;54.332;48.386;2022-10-31T02:21:49;96664.59;;;1.16;80.69
38530;BME280;24301;54.332;48.386;2022-10-31T02:29:53;96681.00;;;1.13;80.24
38530;BME280;24301;54.332;48.386;2022-10-31T02:35:49;96680.09;;;1.18;81.63
38530;BME280;24301;54.332;48.386;2022-10-31T02:38:42;96680.06;;;1.19;81.31
38530;BME280;24301;54.332;48.386;2022-10-31T02:41:35;96685.19;;;1.22;80.99
38530;BME280;24301;54.332;48.386;2022-10-31T02:44:22;96696.50;;;1.17;81.44
38530;BME280;24301;54.332;48.386;2022-10-31T02:47:29;96695.69;;;1.13;80.93
38530;BME280;24301;54.332;48.386;2022-10-31T02:52:31;96682.09;;;0.97;81.60
38530;BME280;24301;54.332;48.386;2022-10-31T02:55:13;96694.31;;;0.84;81.41
38530;BME280;24301;54.332;48.386;2022-10-31T02:58:12;96685.88;;;0.68;82.23
38530;BME280;24301;54.332;48.386;2022-10-31T03:07:05;96693.56;;;0.73;83.05
38530;BME280;24301;54.332;48.386;2022-10-31T03:09:53;96685.94;;;0.62;82.96
38530;BME280;24301;54.332;48.386;2022-10-31T03:12:27;96698.81;;;0.68;82.72
38530;BME280;24301;54.332;48.386;2022-10-31T03:17:52;96707.53;;;0.57;82.33
38530;BME280;24301;54.332;48.386;2022-10-31T03:20:26;96705.00;;;0.51;82.41
38530;BME280;24301;54.332;48.386;2022-10-31T03:22:54;96709.34;;;0.48;83.23
38530;BME280;24301;54.332;48.386;2022-10-31T03:25:22;96714.59;;;0.43;83.39
38530;BME280;24301;54.332;48.386;2022-10-31T03:27:51;96717.94;;;0.50;83.69
38530;BME280;24301;54.332;48.386;2022-10-31T03:30:18;96715.31;;;0.56;84.12
38530;BME280;24301;54.332;48.386;2022-10-31T03:32:58;96711.75;;;0.66;83.22
38530;BME280;24301;54.332;48.386;2022-10-31T03:35:29;96724.59;;;0.74;83.79
38530;BME280;24301;54.332;48.386;2022-10-31T03:37:58;96727.09;;;0.83;83.29
38530;BME280;24301;54.332;48.386;2022-10-31T03:40:26;96723.53;;;0.94;83.50
38530;BME280;24301;54.332;48.386;2022-10-31T03:42:57;96733.84;;;0.95;82.98
38530;BME280;24301;54.332;48.386;2022-10-31T03:45:27;96727.72;;;1.04;83.50
38530;BME280;24301;54.332;48.386;2022-10-31T03:47:56;96722.56;;;1.01;83.21
38530;BME280;24301;54.332;48.386;2022-10-31T03:50:25;96732.06;;;1.00;82.69
38530;BME280;24301;54.332;48.386;2022-10-31T03:53:02;96736.38;;;1.00;82.41
38530;BME280;24301;54.332;48.386;2022-10-31T03:55:35;96739.91;;;0.96;82.32
38530;BME280;24301;54.332;48.386;2022-10-31T03:58:27;96745.06;;;0.94;81.78
38530;BME280;24301;54.332;48.386;2022-10-31T04:00:57;96740.84;;;0.87;81.66
38530;BME280;24301;54.332;48.386;2022-10-31T04:03:31;96739.22;;;0.80;81.35
38530;BME280;24301;54.332;48.386;2022-10-31T04:06:05;96747.09;;;0.69;81.61
38530;BME280;24301;54.332;48.386;2022-10-31T04:08:39;96742.00;;;0.61;81.70
38530;BME280;24301;54.332;48.386;2022-10-31T04:11:08;96738.59;;;0.54;80.94
38530;BME280;24301;54.332;48.386;2022-10-31T04:13:40;96747.25;;;0.49;80.96
38530;BME280;24301;54.332;48.386;2022-10-31T04:16:12;96740.31;;;0.55;80.80
38530;BME280;24301;54.332;48.386;2022-10-31T04:18:40;96749.81;;;0.53;80.62
38530;BME280;24301;54.332;48.386;2022-10-31T04:21:07;96749.88;;;0.47;80.94
38530;BME280;24301;54.332;48.386;2022-10-31T04:23:34;96746.47;;;0.40;80.17
38530;BME280;24301;54.332;48.386;2022-10-31T04:26:10;96748.25;;;0.35;80.07
38530;BME280;24301;54.332;48.386;2022-10-31T04:28:37;96758.59;;;0.34;80.13
38530;BME280;24301;54.332;48.386;2022-10-31T04:31:03;96765.50;;;0.32;79.29
38530;BME280;24301;54.332;48.386;2022-10-31T04:33:30;96757.78;;;0.30;79.80
38530;BME280;24301;54.332;48.386;2022-10-31T04:35:55;96766.31;;;0.37;79.09
38530;BME280;24301;54.332;48.386;2022-10-31T04:38:21;96774.00;;;0.48;78.74
38530;BME280;24301;54.332;48.386;2022-10-31T04:40:48;96770.78;;;1.08;79.24
38530;BME280;24301;54.332;48.386;2022-10-31T04:43:33;96779.78;;;3.11;77.64
38530;BME280;24301;54.332;48.386;2022-10-31T04:46:00;96777.59;;;5.50;72.75
38530;BME280;24301;54.332;48.386;2022-10-31T04:48:27;96783.13;;;7.56;65.68
38530;BME280;24301;54.332;48.386;2022-10-31T04:50:58;96769.72;;;9.58;59.64
38530;BME280;24301;54.332;48.386;2022-10-31T04:53:24;96761.94;;;9.75;55.67
38530;BME280;24301;54.332;48.386;2022-10-31T04:56:23;96766.41;;;8.28;54.42
38530;BME280;24301;54.332;48.386;2022-10-31T04:58:54;96771.03;;;6.52;57.74
38530;BME280;24301;54.332;48.386;2022-10-31T05:01:22;96775.91;;;5.49;60.24
38530;BME280;24301;54.332;48.386;2022-10-31T05:03:48;96779.09;;;6.17;60.47
38530;BME280;24301;54.332;48.386;2022-10-31T05:06:14;96770.69;;;8.53;57.48
38530;BME280;24301;54.332;48.386;2022-10-31T05:08:42;96773.72;;;9.06;52.55
38530;BME280;24301;54.332;48.386;2022-10-31T05:11:09;96770.38;;;10.01;50.97
38530;BME280;24301;54.332;48.386;2022-10-31T05:13:36;96768.22;;;11.34;48.75
38530;BME280;24301;54.332;48.386;2022-10-31T05:16:11;96762.41;;;12.74;45.65
38530;BME280;24301;54.332;48.386;2022-10-31T05:18:40;96773.97;;;13.90;43.29
38530;BME280;24301;54.332;48.386;2022-10-31T05:21:26;96767.81;;;14.59;41.15
38530;BME280;24301;54.332;48.386;2022-10-31T05:23:56;96773.50;;;15.34;39.50
38530;BME280;24301;54.332;48.386;2022-10-31T05:26:23;96760.84;;;15.76;37.84
38530;BME280;24301;54.332;48.386;2022-10-31T05:28:50;96763.28;;;16.05;37.08
38530;BME280;24301;54.332;48.386;2022-10-31T05:31:16;96766.81;;;16.30;35.77
38530;BME280;24301;54.332;48.386;2022-10-31T05:33:42;96769.72;;;16.87;34.86
38530;BME280;24301;54.332;48.386;2022-10-31T05:36:26;96773.72;;;17.17;33.83
38530;BME280;24301;54.332;48.386;2022-10-31T05:38:56;96772.56;;;17.56;33.33
38530;BME280;24301;54.332;48.386;2022-10-31T05:41:24;96765.81;;;17.97;32.25
38530;BME280;24301;54.332;48.386;2022-10-31T05:43:52;96780.66;;;18.00;31.57
38530;BME280;24301;54.332;48.386;2022-10-31T05:46:22;96773.38;;;18.36;31.03
38530;BME280;24301;54.332;48.386;2022-10-31T05:49:17;96778.50;;;18.05;30.02
38530;BME280;24301;54.332;48.386;2022-10-31T05:52:02;96779.47;;;17.70;30.61
38530;BME280;24301;54.332;48.386;2022-10-31T05:54:44;96771.34;;;18.40;30.18
38530;BME280;24301;54.332;48.386;2022-10-31T05:57:10;96776.41;;;18.43;29.01
38530;BME280;24301;54.332;48.386;2022-10-31T05:59:36;96794.41;;;18.83;29.35
38530;BME280;24301;54.332;48.386;2022-10-31T06:02:02;96795.75;;;18.77;28.75
38530;BME280;24301;54.332;48.386;2022-10-31T06:04:47;96797.78;;;18.85;28.39
38530;BME280;24301;54.332;48.386;2022-10-31T06:07:13;96805.22;;;19.03;28.36
38530;BME280;24301;54.332;48.386;2022-10-31T06:09:39;96814.56;;;19.51;27.76
38530;BME280;24301;54.332;48.386;2022-10-31T06:12:06;96823.38;;;19.94;27.52
38530;BME280;24301;54.332;48.386;2022-10-31T06:14:50;96833.19;;;21.05;26.60
38530;BME280;24301;54.332;48.386;2022-10-31T06:17:16;96842.06;;;21.15;25.27
38530;BME280;24301;54.332;48.386;2022-10-31T06:19:48;96831.03;;;20.79;25.15
38530;BME280;24301;54.332;48.386;2022-10-31T06:22:19;96830.63;;;20.74;25.02
38530;BME280;24301;54.332;48.386;2022-10-31T06:24:45;96830.19;;;20.59;25.00
38530;BME280;24301;54.332;48.386;2022-10-31T06:27:28;96845.06;;;20.71;24.42
38530;BME280;24301;54.332;48.386;2022-10-31T06:29:55;96838.00;;;20.91;24.57
38530;BME280;24301;54.332;48.386;2022-10-31T06:32:31;96833.06;;;21.36;23.81
38530;BME280;24301;54.332;48.386;2022-10-31T06:34:57;96837.25;;;21.58;23.36
38530;BME280;24301;54.332;48.386;2022-10-31T06:37:23;96850.16;;;21.82;23.33
38530;BME280;24301;54.332;48.386;2022-10-31T06:39:51;96852.94;;;22.48;22.25
38530;BME280;24301;54.332;48.386;2022-10-31T06:42:17;96848.78;;;22.54;21.88
38530;BME280;24301;54.332;48.386;2022-10-31T06:44:43;96846.56;;;21.24;21.84
38530;BME280;24301;54.332;48.386;2022-10-31T06:47:29;96860.03;;;21.52;22.01
38530;BME280;24301;54.332;48.386;2022-10-31T06:49:59;96853.03;;;22.19;21.34
38530;BME280;24301;54.332;48.386;2022-10-31T06:52:26;96869.22;;;22.55;20.44
38530;BME280;24301;54.332;48.386;2022-10-31T06:54:52;96860.41;;;22.35;20.53
38530;BME280;24301;54.332;48.386;2022-10-31T06:57:18;96882.41;;;22.66;20.48
38530;BME280;24301;54.332;48.386;2022-10-31T06:59:44;96882.41;;;21.51;21.24
38530;BME280;24301;54.332;48.386;2022-10-31T07:02:11;96878.47;;;19.93;22.20
38530;BME280;24301;54.332;48.386;2022-10-31T07:04:38;96884.50;;;18.99;23.43
38530;BME280;24301;54.332;48.386;2022-10-31T07:07:04;96887.72;;;19.14;23.43
38530;BME280;24301;54.332;48.386;2022-10-31T07:09:31;96895.28;;;19.51;23.46
38530;BME280;24301;54.332;48.386;2022-10-31T07:12:01;96900.75;;;19.50;23.32
38530;BME280;24301;54.332;48.386;2022-10-31T07:14:28;96907.44;;;19.65;23.23
38530;BME280;24301;54.332;48.386;2022-10-31T07:16:54;96906.09;;;19.06;23.42
38530;BME280;24301;54.332;48.386;2022-10-31T07:19:32;96910.03;;;18.56;24.39
38530;BME280;24301;54.332;48.386;2022-10-31T07:21:58;96907.78;;;16.48;25.99
38530;BME280;24301;54.332;48.386;2022-10-31T07:24:27;96910.78;;;14.42;28.42
38530;BME280;24301;54.332;48.386;2022-10-31T07:27:11;96905.91;;;12.36;30.98
38530;BME280;24301;54.332;48.386;2022-10-31T07:29:37;96918.66;;;10.69;33.41
38530;BME280;24301;54.332;48.386;2022-10-31T07:32:04;96913.19;;;9.56;35.08
38530;BME280;24301;54.332;48.386;2022-10-31T07:34:31;96914.16;;;8.67;36.76
38530;BME280;24301;54.332;48.386;2022-10-31T07:37:32;96915.03;;;7.72;38.09
38530;BME280;24301;54.332;48.386;2022-10-31T07:39:58;96906.94;;;7.28;39.77
38530;BME280;24301;54.332;48.386;2022-10-31T07:42:24;96916.13;;;6.59;40.85
38530;BME280;24301;54.332;48.386;2022-10-31T07:44:50;96922.84;;;6.08;41.89
38530;BME280;24301;54.332;48.386;2022-10-31T07:50:30;96924.81;;;5.66;44.18
38530;BME280;24301;54.332;48.386;2022-10-31T07:53:14;96929.75;;;5.44;44.27
38530;BME280;24301;54.332;48.386;2022-10-31T07:55:53;96937.22;;;5.23;45.33
38530;BME280;24301;54.332;48.386;2022-10-31T07:58:19;96933.88;;;5.20;45.39
38530;BME280;24301;54.332;48.386;2022-10-31T08:00:46;96939.09;;;5.20;46.27
38530;BME280;24301;54.332;48.386;2022-10-31T08:03:23;96941.81;;;5.13;47.58
38530;BME280;24301;54.332;48.386;2022-10-31T08:06:07;96935.94;;;5.07;46.80
38530;BME280;24301;54.332;48.386;2022-10-31T08:08:52;96948.72;;;5.14;47.30
38530;BME280;24301;54.332;48.386;2022-10-31T08:11:18;96939.66;;;5.31;46.91
38530;BME280;24301;54.332;48.386;2022-10-31T08:13:44;96946.81;;;5.23;47.77
38530;BME280;24301;54.332;48.386;2022-10-31T08:16:13;96950.94;;;5.31;47.92
38530;BME280;24301;54.332;48.386;2022-10-31T08:18:50;96940.25;;;5.06;48.38
38530;BME280;24301;54.332;48.386;2022-10-31T08:21:16;96938.78;;;4.96;48.39
38530;BME280;24301;54.332;48.386;2022-10-31T08:23:44;96954.59;;;4.88;48.84
38530;BME280;24301;54.332;48.386;2022-10-31T08:26:37;96966.56;;;4.95;49.71
38530;BME280;24301;54.332;48.386;2022-10-31T08:29:06;96952.88;;;4.87;48.66
38530;BME280;24301;54.332;48.386;2022-10-31T08:31:46;96957.50;;;4.74;49.20
38530;BME280;24301;54.332;48.386;2022-10-31T08:34:31;96955.91;;;4.67;48.86
38530;BME280;24301;54.332;48.386;2022-10-31T08:37:15;96961.09;;;4.68;48.98
38530;BME280;24301;54.332;48.386;2022-10-31T08:39:47;96965.56;;;4.63;49.39
38530;BME280;24301;54.332;48.386;2022-10-31T08:42:13;96974.94;;;4.70;49.67
38530;BME280;24301;54.332;48.386;2022-10-31T08:44:39;96973.38;;;4.63;49.76
38530;BME280;24301;54.332;48.386;2022-10-31T08:47:05;96971.53;;;4.67;49.98
38530;BME280;24301;54.332;48.386;2022-10-31T08:49:33;96977.53;;;4.72;49.93
38530;BME280;24301;54.332;48.386;2022-10-31T08:51:59;96980.94;;;4.74;50.21
38530;BME280;24301;54.332;48.386;2022-10-31T08:54:30;96986.22;;;4.71;49.95
38530;BME280;24301;54.332;48.386;2022-10-31T08:56:57;96980.16;;;4.70;49.78
38530;BME280;24301;54.332;48.386;2022-10-31T08:59:33;96978.13;;;4.83;49.72
38530;BME280;24301;54.332;48.386;2022-10-31T09:02:22;96976.47;;;4.81;49.04
38530;BME280;24301;54.332;48.386;2022-10-31T09:04:50;96976.25;;;4.88;48.31
38530;BME280;24301;54.332;48.386;2022-10-31T09:07:16;96978.84;;;4.88;48.18
38530;BME280;24301;54.332;48.386;2022-10-31T09:09:42;96992.69;;;4.91;47.71
38530;BME280;24301;54.332;48.386;2022-10-31T09:12:08;96989.28;;;4.88;47.66
38530;BME280;24301;54.332;48.386;2022-10-31T09:15:07;96987.63;;;4.84;47.56
38530;BME280;24301;54.332;48.386;2022-10-31T09:17:46;96999.22;;;4.71;47.55
38530;BME280;24301;54.332;48.386;2022-10-31T09:20:21;96994.59;;;4.44;47.64
38530;BME280;24301;54.332;48.386;2022-10-31T09:22:47;97000.00;;;4.35;48.46
38530;BME280;24301;54.332;48.386;2022-10-31T09:25:13;97006.69;;;4.47;48.46
38530;BME280;24301;54.332;48.386;2022-10-31T09:27:42;97017.84;;;4.52;48.12
38530;BME280;24301;54.332;48.386;2022-10-31T09:30:08;97009.00;;;4.59;48.03
38530;BME280;24301;54.332;48.386;2022-10-31T09:32:35;97008.81;;;4.69;47.99
38530;BME280;24301;54.332;48.386;2022-10-31T09:35:02;97015.53;;;4.79;47.67
38530;BME280;24301;54.332;48.386;2022-10-31T09:37:28;97013.75;;;4.80;47.60
38530;BME280;24301;54.332;48.386;2022-10-31T09:39:54;97012.09;;;4.77;47.89
38530;BME280;24301;54.332;48.386;2022-10-31T09:45:21;97022.31;;;4.86;49.45
38530;BME280;24301;54.332;48.386;2022-10-31T09:51:12;97026.22;;;5.04;49.67
38530;BME280;24301;54.332;48.386;2022-10-31T09:56:21;97040.25;;;4.59;50.84
38530;BME280;24301;54.332;48.386;2022-10-31T09:58:55;97044.63;;;4.57;51.63
38530;BME280;24301;54.332;48.386;2022-10-31T10:01:34;97054.22;;;4.55;52.16
38530;BME280;24301;54.332;48.386;2022-10-31T10:07:24;97052.16;;;4.27;53.64
38530;BME280;24301;54.332;48.386;2022-10-31T10:13:57;97060.44;;;4.02;54.81
38530;BME280;24301;54.332;48.386;2022-10-31T10:16:53;97050.03;;;4.02;55.16
38530;BME280;24301;54.332;48.386;2022-10-31T10:31:16;97059.94;;;3.82;55.91
38530;BME280;24301;54.332;48.386;2022-10-31T10:36:51;97057.22;;;3.90;55.22
38530;BME280;24301;54.332;48.386;2022-10-31T10:39:25;97070.28;;;3.85;55.13
38530;BME280;24301;54.332;48.386;2022-10-31T10:41:53;97079.00;;;3.81;55.43
38530;BME280;24301;54.332;48.386;2022-10-31T10:44:44;97088.53;;;3.82;55.76
38530;BME280;24301;54.332;48.386;2022-10-31T10:47:46;97079.72;;;3.89;55.60
38530;BME280;24301;54.332;48.386;2022-10-31T10:50:21;97089.88;;;4.05;55.79
38530;BME280;24301;54.332;48.386;2022-10-31T10:55:56;97098.28;;;4.19;55.86
38530;BME280;24301;54.332;48.386;2022-10-31T10:58:25;97099.09;;;4.21;55.61
38530;BME280;24301;54.332;48.386;2022-10-31T11:00:53;97099.19;;;4.18;55.67
38530;BME280;24301;54.332;48.386;2022-10-31T11:03:23;97105.00;;;4.29;56.07
38530;BME280;24301;54.332;48.386;2022-10-31T11:05:57;97105.88;;;4.30;55.50
38530;BME280;24301;54.332;48.386;2022-10-31T11:08:33;97111.09;;;4.30;54.98
38530;BME280;24301;54.332;48.386;2022-10-31T11:13:33;97098.94;;;4.30;54.66
38530;BME280;24301;54.332;48.386;2022-10-31T11:18:31;97112.19;;;4.18;54.14
38530;BME280;24301;54.332;48.386;2022-10-31T11:21:01;97112.31;;;4.09;54.60
38530;BME280;24301;54.332;48.386;2022-10-31T11:23:28;97114.13;;;4.05;54.83
38530;BME280;24301;54.332;48.386;2022-10-31T11:26:05;97121.13;;;4.01;54.82
38530;BME280;24301;54.332;48.386;2022-10-31T11:28:33;97120.19;;;4.04;54.57
38530;BME280;24301;54.332;48.386;2022-10-31T11:31:12;97117.63;;;4.02;55.37
38530;BME280;24301;54.332;48.386;2022-10-31T11:33:48;97119.59;;;3.88;55.18
38530;BME280;24301;54.332;48.386;2022-10-31T11:36:26;97136.97;;;3.86;55.28
38530;BME280;24301;54.332;48.386;2022-10-31T11:38:53;97143.22;;;3.76;55.97
38530;BME280;24301;54.332;48.386;2022-10-31T11:41:30;97138.13;;;3.69;56.27
38530;BME280;24301;54.332;48.386;2022-10-31T11:46:40;97148.47;;;3.71;56.43
38530;BME280;24301;54.332;48.386;2022-10-31T11:51:48;97152.34;;;3.45;56.16
38530;BME280;24301;54.332;48.386;2022-10-31T11:54:30;97160.34;;;3.31;56.67
38530;BME280;24301;54.332;48.386;2022-10-31T11:56:57;97157.94;;;3.15;56.61
38530;BME280;24301;54.332;48.386;2022-10-31T11:59:31;97162.34;;;3.10;56.47
38530;BME280;24301;54.332;48.386;2022-10-31T12:02:00;97165.03;;;3.04;56.86
38530;BME280;24301;54.332;48.386;2022-10-31T12:04:38;97169.38;;;3.04;57.53
38530;BME280;24301;54.332;48.386;2022-10-31T12:07:05;97178.91;;;3.01;56.99
38530;BME280;24301;54.332;48.386;2022-10-31T12:09:36;97167.72;;;2.98;56.86
38530;BME280;24301;54.332;48.386;2022-10-31T12:12:15;97167.75;;;2.93;57.58
38530;BME280;24301;54.332;48.386;2022-10-31T12:17:23;97172.09;;;2.93;57.90
38530;BME280;24301;54.332;48.386;2022-10-31T12:30:37;97184.34;;;2.83;59.37
38530;BME280;24301;54.332;48.386;2022-10-31T12:33:42;97191.28;;;2.81;60.41
38530;BME280;24301;54.332;48.386;2022-10-31T12:41:50;97194.72;;;2.83;60.93
38530;BME280;24301;54.332;48.386;2022-10-31T12:47:11;97188.69;;;2.79;60.77
38530;BME280;24301;54.332;48.386;2022-10-31T12:52:54;97185.22;;;2.80;61.30
38530;BME280;24301;54.332;48.386;2022-10-31T13:01:08;97199.03;;;2.82;60.92
38530;BME280;24301;54.332;48.386;2022-10-31T13:04:05;97200.75;;;2.83;60.36
38530;BME280;24301;54.332;48.386;2022-10-31T13:07:13;97199.06;;;2.79;61.02
38530;BME280;24301;54.332;48.386;2022-10-31T13:10:07;97206.94;;;2.73;61.00
38530;BME280;24301;54.332;48.386;2022-10-31T13:12:39;97207.88;;;2.66;60.64
38530;BME280;24301;54.332;48.386;2022-10-31T13:15:24;97214.78;;;2.67;61.39
38530;BME280;24301;54.332;48.386;2022-10-31T13:18:00;97223.44;;;2.64;61.48
38530;BME280;24301;54.332;48.386;2022-10-31T13:20:38;97230.47;;;2.54;61.38
38530;BME280;24301;54.332;48.386;2022-10-31T13:23:29;97227.94;;;2.48;62.64
38530;BME280;24301;54.332;48.386;2022-10-31T13:25:57;97228.78;;;2.49;61.79
38530;BME280;24301;54.332;48.386;2022-10-31T13:31:09;97231.34;;;2.55;61.95
38530;BME280;24301;54.332;48.386;2022-10-31T13:33:52;97232.97;;;2.65;62.90
38530;BME280;24301;54.332;48.386;2022-10-31T13:36:39;97232.03;;;2.69;62.76
38530;BME280;24301;54.332;48.386;2022-10-31T13:41:52;97233.75;;;2.72;62.91
38530;BME280;24301;54.332;48.386;2022-10-31T13:44:29;97239.00;;;2.67;63.13
38530;BME280;24301;54.332;48.386;2022-10-31T13:47:00;97242.50;;;2.62;62.78
38530;BME280;24301;54.332;48.386;2022-10-31T13:54:39;97250.38;;;2.54;64.10
38530;BME280;24301;54.332;48.386;2022-10-31T14:02:46;97240.81;;;2.57;63.92
38530;BME280;24301;54.332;48.386;2022-10-31T14:05:29;97256.28;;;2.70;64.54
38530;BME280;24301;54.332;48.386;2022-10-31T14:07:56;97254.56;;;2.69;63.69
38530;BME280;24301;54.332;48.386;2022-10-31T14:13:02;97259.75;;;2.69;63.79
38530;BME280;24301;54.332;48.386;2022-10-31T14:15:30;97262.38;;;2.64;63.51
38530;BME280;24301;54.332;48.386;2022-10-31T14:18:04;97264.13;;;2.61;63.82
38530;BME280;24301;54.332;48.386;2022-10-31T14:20:41;97268.47;;;2.60;64.10
38530;BME280;24301;54.332;48.386;2022-10-31T14:23:40;97273.69;;;2.57;63.95
38530;BME280;24301;54.332;48.386;2022-10-31T14:28:50;97271.13;;;2.54;63.72
38530;BME280;24301;54.332;48.386;2022-10-31T14:37:25;97277.19;;;2.51;63.24
38530;BME280;24301;54.332;48.386;2022-10-31T14:40:17;97273.75;;;2.49;62.69
38530;BME280;24301;54.332;48.386;2022-10-31T14:46:01;97274.69;;;2.39;62.67
38530;BME280;24301;54.332;48.386;2022-10-31T14:48:51;97279.03;;;2.37;62.74
38530;BME280;24301;54.332;48.386;2022-10-31T14:51:28;97274.72;;;2.37;63.15
38530;BME280;24301;54.332;48.386;2022-10-31T14:53:59;97280.84;;;2.28;63.06
38530;BME280;24301;54.332;48.386;2022-10-31T14:56:33;97286.09;;;2.22;63.73
38530;BME280;24301;54.332;48.386;2022-10-31T14:59:03;97291.25;;;2.25;63.48
38530;BME280;24301;54.332;48.386;2022-10-31T15:01:36;97286.03;;;2.28;63.28
38530;BME280;24301;54.332;48.386;2022-10-31T15:04:21;97286.06;;;2.25;63.54
38530;BME280;24301;54.332;48.386;2022-10-31T15:06:50;97290.41;;;2.22;63.49
38530;BME280;24301;54.332;48.386;2022-10-31T15:09:34;97293.81;;;2.27;63.35
38530;BME280;24301;54.332;48.386;2022-10-31T15:12:28;97282.69;;;2.14;63.22
38530;BME280;24301;54.332;48.386;2022-10-31T15:14:54;97305.13;;;2.18;63.51
38530;BME280;24301;54.332;48.386;2022-10-31T15:17:23;97294.75;;;2.21;63.97
38530;BME280;24301;54.332;48.386;2022-10-31T15:19:51;97302.53;;;2.20;63.49
38530;BME280;24301;54.332;48.386;2022-10-31T15:22:19;97295.56;;;2.25;63.66
38530;BME280;24301;54.332;48.386;2022-10-31T15:24:48;97305.94;;;2.28;63.84
38530;BME280;24301;54.332;48.386;2022-10-31T15:27:17;97302.50;;;2.24;64.10
38530;BME280;24301;54.332;48.386;2022-10-31T15:29:51;97311.13;;;2.26;64.38
38530;BME280;24301;54.332;48.386;2022-10-31T15:32:19;97305.06;;;2.26;64.42
38530;BME280;24301;54.332;48.386;2022-10-31T15:34:45;97308.59;;;2.14;63.91
38530;BME280;24301;54.332;48.386;2022-10-31T15:37:13;97306.03;;;2.12;63.93
38530;BME280;24301;54.332;48.386;2022-10-31T15:39:40;97312.91;;;2.18;64.14